Time;durP1;ratioP1;P1;durP2;ratioP2;P2;SDS_P1;SDS_P2;PMS_P1;PMS_P2;Temp;Humidity;BMP_temperature;BMP_pressure;BME280_temperature;BME280_humidity;BME280_pressure;Samples;Min_cycle;Max_cycle;Signal;HPM_P1;HPM_P2
2023/10/26 00:01:03;;;;;;;;;;;;;;;-144.99;100.00;52513.31;5110777;27;19988;-71
2023/10/26 00:03:30;;;;;;;;;;;;;;;-144.99;100.00;52492.94;5112258;28;20022;-70
2023/10/26 00:05:56;;;;;;;;;;;;;;;-144.99;100.00;52513.31;5112034;28;20752;-71
2023/10/26 00:08:22;;;;;;;;;;;;;;;-144.99;100.00;52501.09;5104637;28;20403;-71
2023/10/26 00:10:51;;;;;;;;;;;;;;;-144.99;100.00;52488.84;5109376;28;19963;-70
2023/10/26 00:13:17;;;;;;;;;;;;;;;-144.99;100.00;52480.72;5105014;28;19927;-71
2023/10/26 00:15:44;;;;;;;;;;;;;;;-144.99;100.00;52513.31;5119526;28;19923;-71
2023/10/26 00:18:11;;;;;;;;;;;;;;;-144.99;100.00;52537.78;5098696;28;20039;-71
2023/10/26 00:20:38;;;;;;;;;;;;;;;-144.99;100.00;52497.00;5096641;28;20017;-70
2023/10/26 00:23:05;;;;;;;;;;;;;;;-144.99;100.00;52513.31;5097524;27;20025;-72
2023/10/26 00:25:31;;;;;;;;;;;;;;;-144.99;100.00;52511.28;5098760;28;20028;-72
2023/10/26 00:27:59;;;;;;;;;;;;;;;-144.99;100.00;52452.16;5098108;27;19928;-72
2023/10/26 00:30:26;;;;;;;;;;;;;;;-144.99;100.00;52505.16;5102181;27;19938;-70
2023/10/26 00:32:52;;;;;;;;;;;;;;;-144.99;100.00;52521.47;5100258;28;19931;-72
2023/10/26 00:35:19;;;;;;;;;;;;;;;-144.99;100.00;52501.09;5099103;27;19934;-73
2023/10/26 00:37:45;;;;;;;;;;;;;;;-144.99;100.00;52497.00;5097420;28;19943;-73
2023/10/26 00:40:12;;;;;;;;;;;;;;;-144.99;100.00;52472.56;5108792;28;19975;-72
2023/10/26 00:42:38;;;;;;;;;;;;;;;-144.99;100.00;52550.00;5103714;28;20341;-72
2023/10/26 00:45:07;;;;;;;;;;;;;;;-144.99;100.00;52515.34;5103742;28;20470;-72
2023/10/26 00:47:33;;;;;;;;;;;;;;;-144.99;100.00;52501.09;5099117;27;20338;-71
2023/10/26 00:50:00;;;;;;;;;;;;;;;-144.99;100.00;52527.59;5098554;27;19979;-72
2023/10/26 00:52:27;;;;;;;;;;;;;;;-144.99;100.00;52456.25;5095517;27;20037;-71
2023/10/26 00:54:53;;;;;;;;;;;;;;;-144.99;100.00;52505.16;5081598;28;20057;-72
2023/10/26 00:57:22;;;;;;;;;;;;;;;-144.99;100.00;52521.47;5100037;27;20006;-72
2023/10/26 00:59:49;;;;;;;;;;;;;;;-144.99;100.00;52497.00;5101274;28;20293;-72
2023/10/26 01:02:17;;;;;;;;;;;;;;;-144.99;100.00;52480.72;5104954;28;19935;-72
2023/10/26 01:04:44;;;;;;;;;;;;;;;-144.99;100.00;52505.16;5079782;28;20013;-72
2023/10/26 01:07:10;;;;;;;;;;;;;;;-144.99;100.00;52509.25;5096081;27;20369;-71
2023/10/26 01:09:37;;;;;;;;;;;;;;;-144.99;100.00;52488.84;5102398;28;19923;-71
2023/10/26 01:12:04;;;;;;;;;;;;;;;-144.99;100.00;52521.47;5096487;28;20010;-71
2023/10/26 01:14:30;;;;;;;;;;;;;;;-144.99;100.00;52545.94;5098975;27;19932;-73
2023/10/26 01:16:56;;;;;;;;;;;;;;;-144.99;100.00;52476.63;5096340;27;19928;-73
2023/10/26 01:19:36;;;;;;;;;;;;;;;-144.99;100.00;52488.84;5097568;27;19927;-73
2023/10/26 01:22:04;;;;;;;;;;;;;;;-144.99;100.00;52472.56;5098498;28;19925;-73
2023/10/26 01:24:30;;;;;;;;;;;;;;;-144.99;100.00;52456.25;5098214;27;19932;-74
2023/10/26 01:26:57;;;;;;;;;;;;;;;-144.99;100.00;52513.31;5097890;28;20019;-74
2023/10/26 01:29:23;;;;;;;;;;;;;;;-144.99;100.00;52505.16;5102363;28;20058;-72
2023/10/26 01:31:50;;;;;;;;;;;;;;;-144.99;100.00;52484.78;5105481;28;19982;-69
2023/10/26 01:34:16;;;;;;;;;;;;;;;-144.99;100.00;52492.94;5102955;28;20010;-71
2023/10/26 01:36:43;;;;;;;;;;;;;;;-144.99;100.00;52480.72;5101503;28;20015;-71
2023/10/26 01:39:10;;;;;;;;;;;;;;;-144.99;100.00;52511.28;5097961;28;20042;-72
2023/10/26 01:41:37;;;;;;;;;;;;;;;-144.99;100.00;52497.00;5104300;28;20006;-71
2023/10/26 01:44:03;;;;;;;;;;;;;;;-144.99;100.00;52509.25;5104135;28;20392;-70
2023/10/26 01:46:30;;;;;;;;;;;;;;;-144.99;100.00;52492.94;5102592;28;19987;-70
2023/10/26 01:48:56;;;;;;;;;;;;;;;-144.99;100.00;52509.25;5097073;27;20039;-70
2023/10/26 01:51:23;;;;;;;;;;;;;;;-144.99;100.00;52501.09;5096211;27;20010;-71
2023/10/26 01:53:49;;;;;;;;;;;;;;;-144.99;100.00;52497.00;5096457;28;19944;-73
2023/10/26 01:56:17;;;;;;;;;;;;;;;-144.99;100.00;52501.09;5096927;28;20395;-71
2023/10/26 01:58:43;;;;;;;;;;;;;;;-144.99;100.00;52492.94;5097299;27;19992;-73
2023/10/26 02:01:10;;;;;;;;;;;;;;;-144.99;100.00;52509.25;5113519;28;20153;-73
2023/10/26 02:03:36;;;;;;;;;;;;;;;-144.99;100.00;52494.97;5101966;28;19974;-73
2023/10/26 02:06:03;;;;;;;;;;;;;;;-144.99;100.00;52527.59;5107178;28;19973;-71
2023/10/26 02:08:29;;;;;;;;;;;;;;;-144.99;100.00;52480.72;5106233;28;20475;-72
2023/10/26 02:10:56;;;;;;;;;;;;;;;-144.99;100.00;52492.94;5101499;28;20022;-72
2023/10/26 02:13:23;;;;;;;;;;;;;;;-144.99;100.00;52525.56;5098464;28;20043;-70
2023/10/26 02:15:50;;;;;;;;;;;;;;;-144.99;100.00;52492.94;5096296;28;20200;-71
2023/10/26 02:18:16;;;;;;;;;;;;;;;-144.99;100.00;52503.13;5095781;28;19968;-71
2023/10/26 02:20:43;;;;;;;;;;;;;;;-144.99;100.00;52486.81;5093571;28;19927;-71
2023/10/26 02:23:09;;;;;;;;;;;;;;;-144.99;100.00;52476.63;5095178;28;19956;-71
2023/10/26 02:25:36;;;;;;;;;;;;;;;-144.99;100.00;52517.41;5094867;27;19946;-70
2023/10/26 02:28:02;;;;;;;;;;;;;;;-144.99;100.00;52486.81;5097979;27;20414;-71
2023/10/26 02:30:30;;;;;;;;;;;;;;;-144.99;100.00;52488.84;5095569;27;19985;-72
2023/10/26 02:32:56;;;;;;;;;;;;;;;-144.99;100.00;52521.47;5100400;28;19974;-72
2023/10/26 02:35:23;;;;;;;;;;;;;;;-144.99;100.00;52484.78;5103777;28;19924;-71
2023/10/26 02:37:49;;;;;;;;;;;;;;;-144.99;100.00;52513.31;5111100;28;19923;-71
2023/10/26 02:40:16;;;;;;;;;;;;;;;-144.99;100.00;52472.56;5111196;28;19977;-72
2023/10/26 02:42:42;;;;;;;;;;;;;;;-144.99;100.00;52439.94;5109173;28;19942;-71
2023/10/26 02:45:09;;;;;;;;;;;;;;;-144.99;100.00;52456.25;5111134;28;20524;-71
2023/10/26 02:47:37;;;;;;;;;;;;;;;-144.99;100.00;52523.50;5110367;28;19984;-72
2023/10/26 02:50:04;;;;;;;;;;;;;;;-144.99;100.00;52545.94;5105943;28;20371;-72
2023/10/26 02:52:30;;;;;;;;;;;;;;;-144.99;100.00;52521.47;5109922;28;20042;-70
2023/10/26 02:54:57;;;;;;;;;;;;;;;-144.99;100.00;52497.00;5109311;28;19927;-69
2023/10/26 02:57:23;;;;;;;;;;;;;;;-144.99;100.00;52478.66;5103931;28;20042;-70
2023/10/26 02:59:50;;;;;;;;;;;;;;;-144.99;100.00;52486.81;5108607;28;20022;-71
2023/10/26 03:02:16;;;;;;;;;;;;;;;-144.99;100.00;52501.09;5103503;28;20010;-70
2023/10/26 03:04:44;;;;;;;;;;;;;;;-144.99;100.00;52505.16;5110472;28;19923;-71
2023/10/26 03:07:10;;;;;;;;;;;;;;;-144.99;100.00;52484.78;5109382;28;20042;-71
2023/10/26 03:09:37;;;;;;;;;;;;;;;-144.99;100.00;52476.63;5107977;28;19924;-73
2023/10/26 03:12:03;;;;;;;;;;;;;;;-144.99;100.00;52492.94;5098874;28;20030;-71
2023/10/26 03:14:30;;;;;;;;;;;;;;;-144.99;100.00;52509.25;5100432;28;20428;-72
2023/10/26 03:16:56;;;;;;;;;;;;;;;-144.99;100.00;52501.09;5096800;28;20403;-72
2023/10/26 03:19:23;;;;;;;;;;;;;;;-144.99;100.00;52492.94;5096800;28;20051;-72
2023/10/26 03:21:51;;;;;;;;;;;;;;;-144.99;100.00;52492.94;5095467;28;20337;-71
2023/10/26 03:24:17;;;;;;;;;;;;;;;-144.99;100.00;52499.06;5096732;28;19924;-74
2023/10/26 03:26:43;;;;;;;;;;;;;;;-144.99;100.00;52490.91;5095824;28;20056;-73
2023/10/26 03:29:10;;;;;;;;;;;;;;;-144.99;100.00;52509.25;5096028;28;20377;-71
2023/10/26 03:31:37;;;;;;;;;;;;;;;-144.99;100.00;52488.84;5101207;28;20353;-71
2023/10/26 03:34:04;;;;;;;;;;;;;;;-144.99;100.00;52497.00;5093596;28;19924;-71
2023/10/26 03:36:30;;;;;;;;;;;;;;;-144.99;100.00;52492.94;5099539;28;19987;-71
2023/10/26 03:38:58;;;;;;;;;;;;;;;-144.99;100.00;52505.16;5102834;28;19977;-71
2023/10/26 03:41:25;;;;;;;;;;;;;;;-144.99;100.00;52484.78;5104162;28;19974;-71
2023/10/26 03:43:51;;;;;;;;;;;;;;;-144.99;100.00;52488.84;5103750;28;19955;-71
2023/10/26 03:46:18;;;;;;;;;;;;;;;-144.99;100.00;52484.78;5095974;28;19967;-69
2023/10/26 03:48:44;;;;;;;;;;;;;;;-144.99;100.00;52513.31;5109111;28;19924;-69
2023/10/26 03:51:11;;;;;;;;;;;;;;;-144.99;100.00;52519.44;5092247;28;19963;-69
2023/10/26 03:53:37;;;;;;;;;;;;;;;-144.99;100.00;52519.44;5105792;28;19951;-69
2023/10/26 03:56:05;;;;;;;;;;;;;;;-144.99;100.00;52464.41;5098102;28;19931;-69
2023/10/26 03:58:32;;;;;;;;;;;;;;;-144.99;100.00;52476.63;5102005;28;20018;-69
2023/10/26 04:00:59;;;;;;;;;;;;;;;-144.99;100.00;52492.94;5094407;28;19981;-69
2023/10/26 04:03:25;;;;;;;;;;;;;;;-144.99;100.00;52484.78;5103116;28;19934;-69
2023/10/26 04:05:52;;;;;;;;;;;;;;;-144.99;100.00;52509.25;5097362;28;20022;-69
2023/10/26 04:08:18;;;;;;;;;;;;;;;-144.99;100.00;52488.84;5101973;28;19924;-69
2023/10/26 04:10:45;;;;;;;;;;;;;;;-144.99;100.00;52507.19;5098221;28;19966;-69
2023/10/26 04:13:12;;;;;;;;;;;;;;;-144.99;100.00;52460.31;5101017;28;19963;-69
2023/10/26 04:15:39;;;;;;;;;;;;;;;-144.99;100.00;52492.94;5087025;28;20024;-70
2023/10/26 04:18:06;;;;;;;;;;;;;;;-144.99;100.00;52513.31;5089993;28;20026;-70
2023/10/26 04:20:33;;;;;;;;;;;;;;;-144.99;100.00;52490.91;5090405;28;19934;-70
2023/10/26 04:22:59;;;;;;;;;;;;;;;-144.99;100.00;52533.69;5091914;27;20014;-69
2023/10/26 04:25:27;;;;;;;;;;;;;;;-144.99;100.00;52484.78;5092623;27;20263;-72
2023/10/26 04:27:55;;;;;;;;;;;;;;;-144.99;100.00;52497.00;5094213;28;20469;-71
2023/10/26 04:30:23;;;;;;;;;;;;;;;-144.99;100.00;52476.63;5095930;27;20670;-77
2023/10/26 04:32:50;;;;;;;;;;;;;;;-144.99;100.00;52492.94;5104837;28;19959;-76
2023/10/26 04:35:16;;;;;;;;;;;;;;;-144.99;100.00;52509.25;5112898;28;19930;-77
2023/10/26 04:37:43;;;;;;;;;;;;;;;-144.99;100.00;52511.28;5103140;28;19931;-75
2023/10/26 04:40:10;;;;;;;;;;;;;;;-144.99;100.00;52503.13;5101620;28;20015;-76
2023/10/26 04:42:37;;;;;;;;;;;;;;;-144.99;100.00;52484.78;5094433;27;20173;-76
2023/10/26 04:45:04;;;;;;;;;;;;;;;-144.99;100.00;52501.09;5096353;28;19963;-76
2023/10/26 04:47:31;;;;;;;;;;;;;;;-144.99;100.00;52486.81;5093698;28;19975;-74
2023/10/26 04:49:58;;;;;;;;;;;;;;;-144.99;100.00;52517.41;5093330;27;20476;-75
2023/10/26 04:52:24;;;;;;;;;;;;;;;-144.99;100.00;52484.78;5093900;27;20441;-77
2023/10/26 04:54:51;;;;;;;;;;;;;;;-144.99;100.00;52507.19;5094207;28;19928;-76
2023/10/26 04:57:17;;;;;;;;;;;;;;;-144.99;100.00;52505.16;5093356;28;20018;-76
2023/10/26 04:59:43;;;;;;;;;;;;;;;-144.99;100.00;52492.94;5091931;28;19932;-77
2023/10/26 05:02:10;;;;;;;;;;;;;;;-144.99;100.00;52513.31;5099790;28;20006;-75
2023/10/26 05:04:38;;;;;;;;;;;;;;;-144.99;100.00;52501.09;5101689;28;20006;-76
2023/10/26 05:07:04;;;;;;;;;;;;;;;-144.99;100.00;52497.00;5103556;28;19949;-76
2023/10/26 05:09:31;;;;;;;;;;;;;;;-144.99;100.00;52482.75;5105635;28;19932;-77
2023/10/26 05:11:57;;;;;;;;;;;;;;;-144.99;100.00;52468.47;5110402;28;19988;-77
2023/10/26 05:14:24;;;;;;;;;;;;;;;-144.99;100.00;52513.31;5126476;28;19928;-80
2023/10/26 05:16:51;;;;;;;;;;;;;;;-144.99;100.00;52499.06;5122867;27;19932;-80
2023/10/26 05:19:17;;;;;;;;;;;;;;;-144.99;100.00;52509.25;5118641;27;19931;-78
2023/10/26 05:21:45;;;;;;;;;;;;;;;-144.99;100.00;52488.84;5100634;28;19971;-79
2023/10/26 05:24:11;;;;;;;;;;;;;;;-144.99;100.00;52476.63;5099586;27;20657;-75
2023/10/26 05:26:38;;;;;;;;;;;;;;;-144.99;100.00;52488.84;5097043;27;20457;-79
2023/10/26 05:29:04;;;;;;;;;;;;;;;-144.99;100.00;52484.78;5097621;27;20031;-74
2023/10/26 05:31:31;;;;;;;;;;;;;;;-144.99;100.00;52505.16;4391506;28;10000688;-77
2023/10/26 05:33:57;;;;;;;;;;;;;;;-144.99;100.00;52464.41;5093358;28;20028;-76
2023/10/26 05:36:23;;;;;;;;;;;;;;;-144.99;100.00;52488.84;5106337;28;19937;-76
2023/10/26 05:38:51;;;;;;;;;;;;;;;-144.99;100.00;52521.47;5115985;28;19912;-77
2023/10/26 05:41:18;;;;;;;;;;;;;;;-144.99;100.00;52497.00;5119311;28;19923;-76
2023/10/26 05:43:44;;;;;;;;;;;;;;;-144.99;100.00;52476.63;5122074;28;20661;-77
2023/10/26 05:46:11;;;;;;;;;;;;;;;-144.99;100.00;52480.72;5102930;28;20058;-78
2023/10/26 05:48:37;;;;;;;;;;;;;;;-144.99;100.00;52497.00;5111381;28;20352;-78
2023/10/26 05:51:04;;;;;;;;;;;;;;;-144.99;100.00;52537.78;5109088;28;19928;-75
2023/10/26 05:53:30;;;;;;;;;;;;;;;-144.99;100.00;52494.97;5106442;28;19970;-77
2023/10/26 05:55:58;;;;;;;;;;;;;;;-144.99;100.00;52494.97;5100065;28;20243;-78
2023/10/26 05:58:25;;;;;;;;;;;;;;;-144.99;100.00;52517.41;5111188;28;19959;-80
2023/10/26 06:00:52;;;;;;;;;;;;;;;-144.99;100.00;52484.78;5111581;28;19928;-78
2023/10/26 06:03:18;;;;;;;;;;;;;;;-144.99;100.00;52456.25;5109505;27;19977;-78
2023/10/26 06:05:47;;;;;;;;;;;;;;;-144.99;100.00;52513.31;5101448;28;20107;-77
2023/10/26 06:08:14;;;;;;;;;;;;;;;-144.99;100.00;52501.09;5102926;28;19932;-77
2023/10/26 06:10:40;;;;;;;;;;;;;;;-144.99;100.00;52503.13;5101061;28;20005;-79
2023/10/26 06:13:08;;;;;;;;;;;;;;;-144.99;100.00;52488.84;5103846;27;20018;-78
2023/10/26 06:15:35;;;;;;;;;;;;;;;-144.99;100.00;52537.78;5101551;28;20026;-79
2023/10/26 06:18:01;;;;;;;;;;;;;;;-144.99;100.00;52521.47;5104146;28;19942;-76
2023/10/26 06:20:28;;;;;;;;;;;;;;;-144.99;100.00;52484.78;5110848;28;19987;-77
2023/10/26 06:22:55;;;;;;;;;;;;;;;-144.99;100.00;52529.63;5107273;28;20025;-79
2023/10/26 06:25:21;;;;;;;;;;;;;;;-144.99;100.00;52488.84;5111851;28;19967;-77
2023/10/26 06:27:48;;;;;;;;;;;;;;;-144.99;100.00;52478.66;5102176;28;19979;-78
2023/10/26 06:30:16;;;;;;;;;;;;;;;-144.99;100.00;52484.78;5097058;28;19927;-77
2023/10/26 06:32:43;;;;;;;;;;;;;;;-144.99;100.00;52517.41;5104350;28;20000;-78
2023/10/26 06:35:11;;;;;;;;;;;;;;;-144.99;100.00;52480.72;5107490;28;19928;-81
2023/10/26 06:37:38;;;;;;;;;;;;;;;-144.99;100.00;52517.41;5113876;28;19927;-81
2023/10/26 06:40:06;;;;;;;;;;;;;;;-144.99;100.00;52484.78;5115487;28;19924;-79
2023/10/26 06:42:33;;;;;;;;;;;;;;;-144.99;100.00;52472.56;5097785;28;20226;-79
2023/10/26 06:44:59;;;;;;;;;;;;;;;-144.99;100.00;52492.94;5101518;28;19934;-79
2023/10/26 06:47:27;;;;;;;;;;;;;;;-144.99;100.00;52521.47;5101264;28;20144;-77
2023/10/26 06:49:54;;;;;;;;;;;;;;;-144.99;100.00;52533.69;5117584;28;19946;-80
2023/10/26 06:52:20;;;;;;;;;;;;;;;-144.99;100.00;52484.78;5107624;28;19955;-78
2023/10/26 06:54:47;;;;;;;;;;;;;;;-144.99;100.00;52497.00;5117354;28;19927;-78
2023/10/26 06:57:14;;;;;;;;;;;;;;;-144.99;100.00;52476.63;5109080;28;19934;-76
2023/10/26 06:59:41;;;;;;;;;;;;;;;-144.99;100.00;52488.84;5099360;28;19966;-78
2023/10/26 07:02:07;;;;;;;;;;;;;;;-144.99;100.00;52488.84;5111651;28;20330;-77
2023/10/26 07:04:35;;;;;;;;;;;;;;;-144.99;100.00;52456.25;5093283;28;19928;-78
2023/10/26 07:07:02;;;;;;;;;;;;;;;-144.99;100.00;52501.09;5105736;28;19924;-78
2023/10/26 07:09:29;;;;;;;;;;;;;;;-144.99;100.00;52505.16;5104262;28;19931;-78
2023/10/26 07:11:56;;;;;;;;;;;;;;;-144.99;100.00;52513.31;5102081;28;19928;-77
2023/10/26 07:14:23;;;;;;;;;;;;;;;-144.99;100.00;52525.56;5102576;28;20051;-78
2023/10/26 07:16:50;;;;;;;;;;;;;;;-144.99;100.00;52460.31;5108029;28;20324;-79
2023/10/26 07:19:16;;;;;;;;;;;;;;;-144.99;100.00;52460.31;5111120;28;20035;-79
2023/10/26 07:21:44;;;;;;;;;;;;;;;-144.99;100.00;52454.22;5102219;28;19928;-79
2023/10/26 07:24:11;;;;;;;;;;;;;;;-144.99;100.00;52509.25;5096739;28;19932;-78
2023/10/26 07:26:37;;;;;;;;;;;;;;;-144.99;100.00;52464.41;5098687;28;19959;-78
2023/10/26 07:29:04;;;;;;;;;;;;;;;-144.99;100.00;52497.00;5111033;28;19932;-78
2023/10/26 07:31:30;;;;;;;;;;;;;;;-144.99;100.00;52490.91;5102886;28;19985;-76
2023/10/26 07:33:57;;;;;;;;;;;;;;;-144.99;100.00;52472.56;5090907;28;20000;-77
2023/10/26 07:36:25;;;;;;;;;;;;;;;-144.99;100.00;52484.78;5110370;28;19927;-76
2023/10/26 07:38:53;;;;;;;;;;;;;;;-144.99;100.00;52452.16;5092115;28;19985;-79
2023/10/26 07:41:25;;;;;;;;;;;;;;;-144.99;100.00;52499.06;5100310;28;19924;-77
2023/10/26 07:43:51;;;;;;;;;;;;;;;-144.99;100.00;52507.19;5105093;28;19988;-76
2023/10/26 07:46:17;;;;;;;;;;;;;;;-144.99;100.00;52484.78;5102088;28;20006;-76
2023/10/26 07:48:44;;;;;;;;;;;;;;;-144.99;100.00;52541.84;5099924;28;19928;-77
2023/10/26 07:51:10;;;;;;;;;;;;;;;-144.99;100.00;52537.78;5096587;28;19979;-77
2023/10/26 07:53:37;;;;;;;;;;;;;;;-144.99;100.00;52460.31;5104267;28;19951;-76
2023/10/26 07:56:05;;;;;;;;;;;;;;;-144.99;100.00;52484.78;5105502;28;20400;-77
2023/10/26 07:58:32;;;;;;;;;;;;;;;-144.99;100.00;52444.03;5118539;28;20263;-78
2023/10/26 08:01:02;;;;;;;;;;;;;;;-144.99;100.00;52480.72;5100091;28;20023;-76
2023/10/26 08:03:28;;;;;;;;;;;;;;;-144.99;100.00;52484.78;5089365;28;20022;-76
2023/10/26 08:06:00;;;;;;;;;;;;;;;-144.99;100.00;52472.56;5109505;27;19956;-76
2023/10/26 08:08:26;;;;;;;;;;;;;;;-144.99;100.00;52460.31;5101319;28;19949;-76
2023/10/26 08:10:53;;;;;;;;;;;;;;;-144.99;100.00;52480.72;5118823;28;19971;-76
2023/10/26 08:13:21;;;;;;;;;;;;;;;-144.99;100.00;52452.16;5105397;28;19960;-78
2023/10/26 08:15:48;;;;;;;;;;;;;;;-144.99;100.00;52439.94;5110589;27;19928;-77
2023/10/26 08:18:14;;;;;;;;;;;;;;;-144.99;100.00;52492.94;5109441;27;20010;-76
2023/10/26 08:20:42;;;;;;;;;;;;;;;-144.99;100.00;52517.41;5106459;28;19932;-77
2023/10/26 08:23:08;;;;;;;;;;;;;;;-144.99;100.00;52460.31;5099425;28;20007;-77
2023/10/26 08:25:35;;;;;;;;;;;;;;;-144.99;100.00;52468.47;5112099;27;19928;-76
2023/10/26 08:28:02;;;;;;;;;;;;;;;-144.99;100.00;52458.28;5107513;28;19963;-77
2023/10/26 08:30:29;;;;;;;;;;;;;;;-144.99;100.00;52505.16;5109687;28;19980;-79
2023/10/26 08:32:56;;;;;;;;;;;;;;;-144.99;100.00;52492.94;5102142;28;19939;-77
2023/10/26 08:35:23;;;;;;;;;;;;;;;-144.99;100.00;52472.56;5109058;28;20391;-78
2023/10/26 08:37:49;;;;;;;;;;;;;;;-144.99;100.00;52456.25;5104504;28;19971;-79
2023/10/26 08:40:16;;;;;;;;;;;;;;;-144.99;100.00;52488.84;5101921;28;19939;-78
2023/10/26 08:42:43;;;;;;;;;;;;;;;-144.99;100.00;52484.78;5105570;28;20034;-80
2023/10/26 08:45:12;;;;;;;;;;;;;;;-144.99;100.00;52470.50;5115863;28;19961;-77
2023/10/26 08:47:40;;;;;;;;;;;;;;;-144.99;100.00;52407.31;5103939;27;19912;-77
2023/10/26 08:50:09;;;;;;;;;;;;;;;-144.99;100.00;52484.78;5105594;28;20037;-78
2023/10/26 08:52:35;;;;;;;;;;;;;;;-144.99;100.00;52464.41;5102966;28;19931;-77
2023/10/26 08:55:01;;;;;;;;;;;;;;;-144.99;100.00;52486.81;5096589;28;19942;-77
2023/10/26 08:57:28;;;;;;;;;;;;;;;-144.99;100.00;52472.56;5109098;28;20150;-75
2023/10/26 08:59:55;;;;;;;;;;;;;;;-144.99;100.00;52488.84;5100021;28;19935;-78
2023/10/26 09:02:21;;;;;;;;;;;;;;;-144.99;100.00;52441.97;5113365;28;19942;-79
2023/10/26 09:05:07;;;;;;;;;;;;;;;-144.99;100.00;52509.25;5124766;27;19912;-79
2023/10/26 09:07:33;;;;;;;;;;;;;;;-144.99;100.00;52521.47;5131833;27;19987;-76
2023/10/26 09:09:59;;;;;;;;;;;;;;;-144.99;100.00;52505.16;5123069;28;19933;-78
2023/10/26 09:12:26;;;;;;;;;;;;;;;-144.99;100.00;52472.56;5126438;28;20029;-78
2023/10/26 09:14:59;;;;;;;;;;;;;;;-144.99;100.00;52466.44;5107768;28;19927;-78
2023/10/26 09:17:27;;;;;;;;;;;;;;;-144.99;100.00;52439.94;5106801;27;19924;-78
2023/10/26 09:19:54;;;;;;;;;;;;;;;-144.99;100.00;52439.94;5096563;28;20030;-77
2023/10/26 09:22:34;;;;;;;;;;;;;;;-144.99;100.00;52494.97;5104375;28;19927;-77
2023/10/26 09:25:06;;;;;;;;;;;;;;;-144.99;100.00;52476.63;5100754;28;19931;-78
2023/10/26 09:27:33;;;;;;;;;;;;;;;-144.99;100.00;52480.72;5093453;27;19924;-78
2023/10/26 09:29:59;;;;;;;;;;;;;;;-144.99;100.00;52452.16;5106874;28;20015;-76
2023/10/26 09:32:31;;;;;;;;;;;;;;;-144.99;100.00;52472.56;5102989;28;20461;-77
2023/10/26 09:34:58;;;;;;;;;;;;;;;-144.99;100.00;52497.00;5100687;28;20446;-77
2023/10/26 09:37:26;;;;;;;;;;;;;;;-144.99;100.00;52480.72;5102281;28;20027;-79
2023/10/26 09:39:53;;;;;;;;;;;;;;;-144.99;100.00;52480.72;5110619;27;19923;-79
2023/10/26 09:42:20;;;;;;;;;;;;;;;-144.99;100.00;52431.78;5102053;28;19971;-78
2023/10/26 09:44:46;;;;;;;;;;;;;;;-144.99;100.00;52488.84;5103179;28;19945;-78
2023/10/26 09:47:13;;;;;;;;;;;;;;;-144.99;100.00;52472.56;5095140;28;20481;-77
2023/10/26 09:49:40;;;;;;;;;;;;;;;-144.99;100.00;52435.88;5094076;28;20361;-79
2023/10/26 09:52:06;;;;;;;;;;;;;;;-144.99;100.00;52476.63;5100176;28;19975;-77
2023/10/26 09:54:35;;;;;;;;;;;;;;;-144.99;100.00;52444.03;5095797;28;20363;-76
2023/10/26 09:57:04;;;;;;;;;;;;;;;-144.99;100.00;52415.47;5081398;28;20447;-77
2023/10/26 09:59:31;;;;;;;;;;;;;;;-144.99;100.00;52476.63;5108586;28;20467;-75
2023/10/26 10:01:58;;;;;;;;;;;;;;;-144.99;99.52;52486.81;5101683;28;19924;-76
2023/10/26 10:04:35;;;;;;;;;;;;;;;-144.99;98.23;52460.31;5101056;28;20431;-77
2023/10/26 10:07:02;;;;;;;;;;;;;;;-144.99;98.30;52458.28;5104734;28;20315;-76
2023/10/26 10:09:29;;;;;;;;;;;;;;;-144.99;98.67;52472.56;5111712;28;19938;-76
2023/10/26 10:12:15;;;;;;;;;;;;;;;-144.99;99.22;52464.41;5099457;28;19931;-77
2023/10/26 10:14:57;;;;;;;;;;;;;;;-144.99;99.42;52492.94;5097686;28;19943;-77
2023/10/26 10:17:44;;;;;;;;;;;;;;;-144.99;98.94;52497.00;5105077;28;19928;-78
2023/10/26 10:20:30;;;;;;;;;;;;;;;-144.99;98.61;52497.00;5107995;27;19973;-77
2023/10/26 10:22:58;;;;;;;;;;;;;;;-144.99;98.58;52433.81;5101127;28;20006;-79
2023/10/26 10:25:52;;;;;;;;;;;;;;;-144.99;98.30;52468.47;5101426;28;20292;-78
2023/10/26 10:28:19;;;;;;;;;;;;;;;-144.99;98.23;52486.81;5099761;28;20285;-78
2023/10/26 10:30:55;;;;;;;;;;;;;;;-144.99;98.61;52456.25;5104649;28;19963;-78
2023/10/26 10:33:23;;;;;;;;;;;;;;;-144.99;98.45;52497.00;5099051;28;19946;-77
2023/10/26 10:35:52;;;;;;;;;;;;;;;-144.99;98.68;52509.25;5098698;28;19928;-78
2023/10/26 10:38:20;;;;;;;;;;;;;;;-144.99;98.73;52488.84;5105868;28;19928;-79
2023/10/26 10:41:02;;;;;;;;;;;;;;;-144.99;98.92;52501.09;5109817;28;19932;-78
2023/10/26 10:43:32;;;;;;;;;;;;;;;-144.99;99.37;52448.09;5100619;28;19924;-79
2023/10/26 10:46:09;;;;;;;;;;;;;;;-144.99;99.41;52505.16;5094309;28;20355;-78
2023/10/26 10:48:36;;;;;;;;;;;;;;;-144.99;99.54;52484.78;5100857;28;19984;-78
2023/10/26 10:51:02;;;;;;;;;;;;;;;-144.99;100.00;52484.78;5098621;28;20552;-77
2023/10/26 10:53:31;;;;;;;;;;;;;;;-144.99;100.00;52521.47;5093536;28;19924;-77
2023/10/26 10:55:58;;;;;;;;;;;;;;;-144.99;100.00;52482.75;5107541;28;19949;-76
2023/10/26 10:58:25;;;;;;;;;;;;;;;-144.99;100.00;52509.25;5102632;28;19964;-79
2023/10/26 11:00:51;;;;;;;;;;;;;;;-144.99;100.00;52503.13;5097549;28;19950;-77
2023/10/26 11:03:19;;;;;;;;;;;;;;;-144.99;100.00;52525.56;5094807;28;20403;-78
2023/10/26 11:05:46;;;;;;;;;;;;;;;-144.99;100.00;52501.09;5100696;28;20335;-77
2023/10/26 11:08:24;;;;;;;;;;;;;;;-144.99;100.00;52454.22;5108008;28;19931;-79
2023/10/26 11:10:51;;;;;;;;;;;;;;;-144.99;100.00;52480.72;5094635;28;19927;-76
2023/10/26 11:13:19;;;;;;;;;;;;;;;-144.99;100.00;52480.72;5105670;28;19935;-76
2023/10/26 11:15:45;;;;;;;;;;;;;;;-144.99;100.00;52446.06;5100740;28;19931;-78
2023/10/26 11:18:12;;;;;;;;;;;;;;;-144.99;100.00;52462.34;5110510;28;20019;-78
2023/10/26 11:20:40;;;;;;;;;;;;;;;-144.99;100.00;52480.72;5109131;28;19924;-77
2023/10/26 11:23:07;;;;;;;;;;;;;;;-144.99;100.00;52468.47;5100774;28;20304;-78
2023/10/26 11:25:34;;;;;;;;;;;;;;;-144.99;98.46;52419.56;5105772;28;19995;-77
2023/10/26 11:28:01;;;;;;;;;;;;;;;-144.99;96.36;52464.41;5111198;28;20328;-77
2023/10/26 11:30:27;;;;;;;;;;;;;;;-144.99;94.62;52452.16;5100917;28;19970;-78
2023/10/26 11:32:54;;;;;;;;;;;;;;;-144.99;93.73;52494.97;5100321;28;20038;-79
2023/10/26 11:35:21;;;;;;;;;;;;;;;-144.99;93.89;52480.72;5110386;28;19928;-77
2023/10/26 11:37:54;;;;;;;;;;;;;;;-144.99;94.22;52492.94;5101091;28;19932;-77
2023/10/26 11:40:28;;;;;;;;;;;;;;;-144.99;94.05;52472.56;5098456;28;20460;-79
2023/10/26 11:42:58;;;;;;;;;;;;;;;-144.99;93.55;52492.94;5100860;28;20022;-77
2023/10/26 11:45:25;;;;;;;;;;;;;;;-144.99;93.63;52486.81;5115596;28;19927;-77
2023/10/26 11:47:52;;;;;;;;;;;;;;;-144.99;92.47;52444.03;5102269;28;19966;-77
2023/10/26 11:50:20;;;;;;;;;;;;;;;-144.99;91.23;52480.72;5102265;28;19932;-77
2023/10/26 11:52:46;;;;;;;;;;;;;;;-144.99;90.79;52452.16;5112605;28;20313;-75
2023/10/26 11:55:14;;;;;;;;;;;;;;;-144.99;90.56;52466.44;5106024;28;20546;-78
2023/10/26 11:57:40;;;;;;;;;;;;;;;-144.99;90.58;52486.81;5098991;27;19935;-77
2023/10/26 12:00:07;;;;;;;;;;;;;;;-144.99;90.37;52448.09;5103040;28;20011;-78
2023/10/26 12:02:34;;;;;;;;;;;;;;;-144.99;90.70;52480.72;5099906;28;19928;-78
2023/10/26 12:05:03;;;;;;;;;;;;;;;-144.99;90.11;52484.78;5100734;28;20006;-76
2023/10/26 12:07:29;;;;;;;;;;;;;;;-144.99;90.72;52456.25;5104822;27;19931;-77
2023/10/26 12:09:55;;;;;;;;;;;;;;;-144.99;90.68;52435.88;5102275;28;20075;-76
2023/10/26 12:12:24;;;;;;;;;;;;;;;-144.99;90.75;52525.56;5097298;28;19928;-77
2023/10/26 12:14:51;;;;;;;;;;;;;;;-144.99;90.75;52488.84;5108497;28;20364;-77
2023/10/26 12:17:17;;;;;;;;;;;;;;;-144.99;90.27;52448.09;5104711;27;19938;-77
2023/10/26 12:19:44;;;;;;;;;;;;;;;-144.99;90.23;52484.78;5099320;28;19959;-77